createdAt,value
2018-06-02T00:01:15.897Z,2.05
2018-06-02T00:03:44.117Z,1.83
2018-06-02T00:06:11.591Z,1.92
2018-06-02T00:08:39.768Z,2.10
2018-06-02T00:11:07.994Z,2.05
2018-06-02T00:13:35.391Z,2.08
2018-06-02T00:16:04.291Z,2.00
2018-06-02T00:18:31.743Z,1.83
2018-06-02T00:20:59.195Z,2.05
2018-06-02T00:23:26.763Z,1.80
2018-06-02T00:25:54.235Z,2.20
2018-06-02T00:28:21.678Z,1.87
2018-06-02T00:30:49.165Z,1.90
2018-06-02T00:33:17.381Z,1.90
2018-06-02T00:35:44.836Z,2.00
2018-06-02T00:38:12.845Z,1.90
2018-06-02T00:40:40.301Z,2.08
2018-06-02T00:43:07.747Z,1.70
2018-06-02T00:45:35.303Z,1.95
2018-06-02T00:48:02.755Z,2.10
2018-06-02T00:50:30.216Z,2.10
2018-06-02T00:52:57.726Z,1.70
2018-06-02T00:55:25.967Z,1.80
2018-06-02T00:57:53.413Z,1.92
2018-06-02T01:00:21.463Z,2.00
2018-06-02T01:02:48.957Z,2.10
2018-06-02T01:05:16.405Z,1.92
2018-06-02T01:07:45.869Z,2.12
2018-06-02T01:10:14.073Z,1.98
2018-06-02T01:12:42.063Z,1.87
2018-06-02T01:15:09.925Z,1.83
2018-06-02T01:17:37.379Z,1.85
2018-06-02T01:20:04.831Z,1.90
2018-06-02T01:22:32.331Z,1.80
2018-06-02T01:24:59.870Z,1.90
2018-06-02T01:27:27.323Z,1.80
2018-06-02T01:29:55.500Z,2.03
2018-06-02T01:32:23.055Z,2.10
2018-06-02T01:34:50.498Z,1.80
2018-06-02T01:37:18.363Z,1.70
2018-06-02T01:39:45.814Z,1.90
2018-06-02T01:42:13.304Z,1.70
2018-06-02T01:44:41.263Z,1.77
2018-06-02T01:47:08.726Z,1.87
2018-06-02T01:49:36.174Z,1.75
2018-06-02T01:52:04.455Z,1.95
2018-06-02T01:54:31.898Z,1.90
2018-06-02T01:56:59.384Z,1.87
2018-06-02T01:59:27.258Z,1.90
2018-06-02T02:01:54.803Z,2.00
2018-06-02T02:04:22.360Z,1.70
2018-06-02T02:06:49.923Z,1.83
2018-06-02T02:09:19.210Z,1.90
2018-06-02T02:11:46.653Z,1.77
2018-06-02T02:14:14.651Z,1.80
2018-06-02T02:16:42.105Z,1.73
2018-06-02T02:19:09.558Z,1.95
2018-06-02T02:21:38.050Z,2.15
2018-06-02T02:24:05.503Z,1.83
2018-06-02T02:26:32.954Z,1.80
2018-06-02T02:29:01.952Z,1.90
2018-06-02T02:31:29.398Z,2.25
2018-06-02T02:33:56.859Z,2.15
2018-06-02T02:36:24.547Z,1.90
2018-06-02T02:38:51.988Z,2.25
2018-06-02T02:41:19.431Z,2.28
2018-06-02T02:43:47.202Z,2.20
2018-06-02T02:46:14.667Z,2.20
2018-06-02T02:48:42.122Z,2.20
2018-06-02T02:51:10.200Z,1.95
2018-06-02T02:53:37.651Z,2.08
2018-06-02T02:56:05.102Z,2.30
2018-06-02T02:58:32.774Z,2.15
2018-06-02T03:01:00.225Z,2.10
2018-06-02T03:03:27.678Z,2.25
2018-06-02T03:05:55.191Z,2.42
2018-06-02T03:08:25.579Z,1.95
2018-06-02T03:10:53.039Z,2.37
2018-06-02T03:13:20.801Z,2.10
2018-06-02T03:15:48.554Z,2.30
2018-06-02T03:18:16.006Z,2.15
2018-06-02T03:20:43.521Z,2.67
2018-06-02T03:23:11.412Z,2.50
2018-06-02T03:25:38.854Z,2.60
2018-06-02T03:28:08.009Z,2.05
2018-06-02T03:30:35.556Z,2.25
2018-06-02T03:33:03.006Z,2.53
2018-06-02T03:35:31.398Z,2.25
2018-06-02T03:37:58.842Z,2.25
2018-06-02T03:40:26.310Z,2.62
2018-06-02T03:42:53.982Z,2.20
2018-06-02T03:45:21.428Z,2.37
2018-06-02T03:47:48.878Z,2.50
2018-06-02T03:50:18.096Z,2.30
2018-06-02T03:52:45.546Z,2.30
2018-06-02T03:55:13.114Z,2.30
2018-06-02T03:57:40.616Z,2.37
2018-06-02T04:00:08.074Z,2.92
2018-06-02T04:02:35.518Z,2.20
2018-06-02T04:05:04.270Z,2.65
2018-06-02T04:07:31.828Z,2.60
2018-06-02T04:10:00.735Z,2.53
2018-06-02T04:12:28.591Z,2.60
2018-06-02T04:14:56.035Z,2.50
2018-06-02T04:17:23.851Z,2.50
2018-06-02T04:19:52.806Z,2.47
2018-06-02T04:22:20.262Z,2.50
2018-06-02T04:24:47.708Z,2.33
2018-06-02T04:27:15.489Z,2.33
2018-06-02T04:29:42.926Z,2.60
2018-06-02T04:32:10.371Z,2.60
2018-06-02T04:34:38.264Z,2.80
2018-06-02T04:37:05.711Z,2.55
2018-06-02T04:39:33.158Z,2.17
2018-06-02T04:42:01.043Z,2.35
2018-06-02T04:44:28.513Z,2.35
2018-06-02T04:46:55.973Z,2.30
2018-06-02T04:49:24.251Z,2.20
2018-06-02T04:51:51.795Z,2.10
2018-06-02T04:54:19.243Z,2.10
2018-06-02T04:56:46.818Z,2.47
2018-06-02T04:59:14.283Z,2.20
2018-06-02T05:01:41.736Z,2.33
2018-06-02T05:04:09.236Z,2.20
2018-06-02T05:06:37.439Z,2.10
2018-06-02T05:09:06.570Z,2.20
2018-06-02T05:11:34.131Z,1.90
2018-06-02T05:14:01.574Z,2.12
2018-06-02T05:16:29.026Z,2.15
2018-06-02T05:18:56.562Z,2.33
2018-06-02T05:21:24.072Z,2.10
2018-06-02T05:23:51.478Z,2.25
2018-06-02T05:26:19.549Z,1.98
2018-06-02T05:28:47.100Z,2.00
2018-06-02T05:31:14.602Z,2.00
2018-06-02T05:33:42.273Z,2.20
2018-06-02T05:36:09.720Z,2.05
2018-06-02T05:38:37.190Z,2.10
2018-06-02T05:41:04.698Z,2.05
2018-06-02T05:43:32.167Z,2.17
2018-06-02T05:45:59.660Z,2.00
2018-06-02T05:48:28.143Z,1.90
2018-06-02T05:50:55.586Z,1.92
2018-06-02T05:53:23.120Z,1.92
2018-06-02T05:55:50.609Z,2.00
2018-06-02T05:58:18.063Z,2.08
2018-06-02T06:00:45.523Z,2.10
2018-06-02T06:03:13.008Z,1.80
2018-06-02T06:05:40.548Z,1.95
2018-06-02T06:08:09.450Z,2.10
2018-06-02T06:10:37.423Z,1.87
2018-06-02T06:13:04.866Z,2.20
2018-06-02T06:15:32.315Z,2.00
2018-06-02T06:17:59.830Z,1.90
2018-06-02T06:20:27.428Z,1.90
2018-06-02T06:22:54.911Z,1.80
2018-06-02T06:25:23.091Z,1.80
2018-06-02T06:27:50.525Z,1.80
2018-06-02T06:30:18.007Z,1.90
2018-06-02T06:32:45.538Z,1.90
2018-06-02T06:35:12.995Z,1.87
2018-06-02T06:37:40.445Z,1.83
2018-06-02T06:40:08.847Z,1.95
2018-06-02T06:42:36.305Z,2.30
2018-06-02T06:45:03.763Z,2.03
2018-06-02T06:47:32.038Z,2.15
2018-06-02T06:49:59.501Z,2.08
2018-06-02T06:52:26.958Z,2.10
2018-06-02T06:54:55.543Z,1.80
2018-06-02T06:57:23.007Z,2.00
2018-06-02T06:59:50.472Z,1.80
2018-06-02T07:02:18.631Z,2.03
2018-06-02T07:04:46.070Z,2.12
2018-06-02T07:07:13.543Z,2.12
2018-06-02T07:09:43.359Z,2.15
2018-06-02T07:12:10.822Z,1.92
2018-06-02T07:14:38.277Z,1.90
2018-06-02T07:17:05.763Z,2.00
2018-06-02T07:19:33.981Z,2.00
2018-06-02T07:22:01.441Z,2.03
2018-06-02T07:24:29.122Z,1.83
2018-06-02T07:26:56.588Z,2.30
2018-06-02T07:29:24.146Z,2.40
2018-06-02T07:31:52.418Z,2.42
2018-06-02T07:34:19.908Z,2.37
2018-06-02T07:36:48.135Z,2.05
2018-06-02T07:39:16.778Z,2.17
2018-06-02T07:41:44.993Z,2.40
2018-06-02T07:44:12.459Z,2.40
2018-06-02T07:46:40.336Z,2.53
2018-06-02T07:49:07.786Z,2.55
2018-06-02T07:51:37.087Z,2.30
2018-06-02T07:54:05.414Z,2.67
2018-06-02T07:56:33.622Z,2.58
2018-06-02T07:59:01.117Z,2.45
2018-06-02T08:01:28.878Z,2.70
2018-06-02T08:03:56.438Z,2.20
2018-06-02T08:06:23.882Z,2.30
2018-06-02T08:08:52.890Z,2.65
2018-06-02T08:11:20.338Z,2.62
2018-06-02T08:13:47.791Z,2.53
2018-06-02T08:16:15.363Z,2.67
2018-06-02T08:18:42.815Z,2.60
2018-06-02T08:21:10.269Z,3.25
2018-06-02T08:23:37.942Z,3.80
2018-06-02T08:26:05.400Z,3.22
2018-06-02T08:28:32.851Z,3.35
2018-06-02T08:31:00.920Z,3.78
2018-06-02T08:33:28.462Z,3.30
2018-06-02T08:35:55.867Z,3.40
2018-06-02T08:38:23.367Z,3.00
2018-06-02T08:40:50.862Z,3.05
2018-06-02T08:43:18.424Z,3.20
2018-06-02T08:45:46.195Z,3.20
2018-06-02T08:48:13.642Z,3.03
2018-06-02T08:50:41.096Z,2.87
2018-06-02T08:53:09.178Z,2.80
2018-06-02T08:55:36.639Z,2.83
2018-06-02T08:58:04.074Z,2.90
2018-06-02T09:00:32.059Z,3.58
2018-06-02T09:02:59.519Z,2.87
2018-06-02T09:05:27.030Z,3.50
2018-06-02T09:07:58.425Z,3.55
2018-06-02T09:10:25.877Z,7.82
2018-06-02T09:12:54.095Z,5.57
2018-06-02T09:15:23.254Z,5.30
2018-06-02T09:17:50.714Z,4.90
2018-06-02T09:20:18.545Z,4.43
2018-06-02T09:22:46.064Z,4.25
2018-06-02T09:25:13.542Z,4.32
2018-06-02T09:27:41.753Z,4.20
2018-06-02T09:30:09.788Z,4.40
2018-06-02T09:32:38.020Z,3.65
2018-06-02T09:35:05.561Z,3.28
2018-06-02T09:37:33.772Z,3.40
2018-06-02T09:40:01.215Z,3.33
2018-06-02T09:42:28.659Z,3.70
2018-06-02T09:44:56.331Z,3.20
2018-06-02T09:47:23.783Z,3.70
2018-06-02T09:49:51.236Z,3.97
2018-06-02T09:52:19.422Z,3.25
2018-06-02T09:54:46.984Z,3.35
2018-06-02T09:57:14.566Z,3.40
2018-06-02T09:59:42.316Z,3.40
2018-06-02T10:02:09.771Z,3.55
2018-06-02T10:04:38.113Z,3.50
2018-06-02T10:07:06.735Z,3.40
2018-06-02T10:09:37.363Z,3.70
2018-06-02T10:12:04.811Z,3.12
2018-06-02T10:14:32.630Z,3.42
2018-06-02T10:17:00.143Z,4.40
2018-06-02T10:19:27.588Z,5.45
2018-06-02T10:21:55.254Z,5.60
2018-06-02T10:24:22.706Z,6.47
2018-06-02T10:26:50.191Z,7.90
2018-06-02T10:29:18.344Z,9.05
2018-06-02T10:31:45.798Z,8.02
2018-06-02T10:34:13.242Z,6.95
2018-06-02T10:36:40.730Z,6.93
2018-06-02T10:39:08.290Z,6.20
2018-06-02T10:41:35.841Z,6.22
2018-06-02T10:44:03.412Z,6.82
2018-06-02T10:46:30.967Z,7.05
2018-06-02T10:48:58.437Z,6.90
2018-06-02T10:51:26.190Z,6.18
2018-06-02T10:53:53.629Z,6.50
2018-06-02T10:56:21.106Z,6.00
2018-06-02T10:58:48.597Z,5.97
2018-06-02T11:01:16.834Z,5.97
2018-06-02T11:03:44.298Z,6.32
2018-06-02T11:06:11.851Z,6.57
2018-06-02T11:08:45.671Z,5.47
2018-06-02T11:11:14.342Z,5.15
2018-06-02T11:13:41.800Z,5.45
2018-06-02T11:16:09.251Z,5.35
2018-06-02T11:18:36.740Z,5.82
2018-06-02T11:21:04.288Z,5.85
2018-06-02T11:23:31.731Z,5.47
2018-06-02T11:26:00.334Z,5.80
2018-06-02T11:28:27.772Z,5.70
2018-06-02T11:30:55.229Z,5.20
2018-06-02T11:33:22.981Z,6.10
2018-06-02T11:35:50.489Z,6.30
2018-06-02T11:38:17.930Z,5.45
2018-06-02T11:40:45.489Z,6.18
2018-06-02T11:43:12.932Z,5.75
2018-06-02T11:45:40.413Z,6.25
2018-06-02T11:48:08.319Z,5.95
2018-06-02T11:50:35.827Z,6.18
2018-06-02T11:53:03.280Z,5.80
2018-06-02T11:55:31.047Z,5.68
2018-06-02T11:57:58.602Z,5.75
2018-06-02T12:00:26.171Z,5.18
2018-06-02T12:02:54.047Z,5.25
2018-06-02T12:05:21.478Z,5.00
2018-06-02T12:07:50.385Z,4.90
2018-06-02T12:10:17.879Z,5.07
2018-06-02T12:12:46.182Z,4.78
2018-06-02T12:15:13.624Z,5.07
2018-06-02T12:17:41.352Z,5.05
2018-06-02T12:20:08.795Z,4.50
2018-06-02T12:22:36.250Z,4.45
2018-06-02T12:25:04.528Z,4.75
2018-06-02T12:27:31.979Z,4.35
2018-06-02T12:29:59.445Z,4.50
2018-06-02T12:32:30.388Z,4.68
2018-06-02T12:34:57.852Z,4.07
2018-06-02T12:37:26.526Z,4.15
2018-06-02T12:39:53.975Z,4.32
2018-06-02T12:42:21.415Z,4.10
2018-06-02T12:44:49.210Z,4.37
2018-06-02T12:47:16.673Z,4.20
2018-06-02T12:49:44.130Z,4.40
2018-06-02T12:52:11.615Z,4.87
2018-06-02T12:54:39.853Z,4.65
2018-06-02T12:57:07.311Z,4.15
2018-06-02T12:59:35.187Z,4.57
2018-06-02T13:02:02.630Z,4.10
2018-06-02T13:04:30.084Z,4.37
2018-06-02T13:06:57.788Z,4.50
2018-06-02T13:09:26.990Z,4.57
2018-06-02T13:11:55.234Z,4.00
2018-06-02T13:14:23.003Z,4.62
2018-06-02T13:16:50.447Z,4.60
2018-06-02T13:19:17.917Z,4.57
2018-06-02T13:21:45.835Z,4.57
2018-06-02T13:24:13.299Z,4.35
2018-06-02T13:26:40.746Z,4.47
2018-06-02T13:29:09.084Z,4.20
2018-06-02T13:31:36.631Z,4.68
2018-06-02T13:34:04.085Z,3.92
2018-06-02T13:36:31.761Z,5.07
2018-06-02T13:38:59.243Z,4.75
2018-06-02T13:41:26.675Z,5.15
2018-06-02T13:43:54.228Z,5.62
2018-06-02T13:46:21.706Z,4.90
2018-06-02T13:48:49.153Z,4.95
2018-06-02T13:51:17.423Z,5.45
2018-06-02T13:53:44.895Z,5.35
2018-06-02T13:56:12.351Z,5.60
2018-06-02T13:58:40.211Z,4.97
2018-06-02T14:01:07.672Z,5.50
2018-06-02T14:03:35.228Z,5.22
2018-06-02T14:06:03.611Z,4.65
2018-06-02T14:08:32.916Z,5.55
2018-06-02T14:11:00.670Z,5.00
2018-06-02T14:13:28.503Z,5.00
2018-06-02T14:15:55.967Z,4.70
2018-06-02T14:18:23.464Z,5.28
2018-06-02T14:20:51.127Z,4.60
2018-06-02T14:23:18.567Z,5.90
2018-06-02T14:25:46.179Z,4.78
2018-06-02T14:28:14.846Z,4.75
2018-06-02T14:30:43.094Z,4.93
2018-06-02T14:33:10.565Z,5.40
2018-06-02T14:35:38.065Z,4.45
2018-06-02T14:38:06.278Z,4.87
2018-06-02T14:40:33.732Z,5.32
2018-06-02T14:43:01.243Z,4.45
2018-06-02T14:45:29.592Z,4.62
2018-06-02T14:47:57.052Z,5.65
2018-06-02T14:50:25.017Z,5.20
2018-06-02T14:52:52.575Z,5.05
2018-06-02T14:55:20.135Z,5.57
2018-06-02T14:57:47.762Z,6.20
2018-06-02T15:00:15.269Z,5.12
2018-06-02T15:02:42.710Z,5.12
2018-06-02T15:05:10.234Z,5.40
2018-06-02T15:07:39.536Z,5.70
2018-06-02T15:10:07.035Z,5.93
2018-06-02T15:12:34.523Z,5.80
2018-06-02T15:15:02.743Z,5.50
2018-06-02T15:17:30.223Z,5.80
2018-06-02T15:19:58.435Z,5.93
2018-06-02T15:22:26.637Z,5.80
2018-06-02T15:24:54.091Z,6.32
2018-06-02T15:27:22.254Z,6.82
2018-06-02T15:29:49.713Z,5.47
2018-06-02T15:32:17.172Z,6.22
2018-06-02T15:34:45.714Z,6.28
2018-06-02T15:37:13.986Z,6.40
2018-06-02T15:39:42.225Z,5.93
2018-06-02T15:42:10.055Z,5.68
2018-06-02T15:44:38.247Z,5.70
2018-06-02T15:47:05.701Z,5.72
2018-06-02T15:49:33.824Z,5.05
2018-06-02T15:52:01.288Z,5.87
2018-06-02T15:54:28.729Z,5.50
2018-06-02T15:56:56.813Z,5.12
2018-06-02T15:59:24.267Z,5.72
2018-06-02T16:01:51.731Z,6.07
2018-06-02T16:04:20.322Z,5.65
2018-06-02T16:06:47.783Z,5.68
2018-06-02T16:09:17.287Z,5.40
2018-06-02T16:11:45.839Z,5.45
2018-06-02T16:14:13.318Z,5.53
2018-06-02T16:16:40.799Z,5.62
2018-06-02T16:19:08.438Z,5.87
2018-06-02T16:21:35.887Z,5.85
2018-06-02T16:24:03.355Z,5.87
2018-06-02T16:26:31.463Z,5.37
2018-06-02T16:28:59.675Z,4.65
2018-06-02T16:31:27.137Z,5.03
2018-06-02T16:33:54.648Z,5.50
2018-06-02T16:36:22.183Z,5.00
2018-06-02T16:38:49.639Z,4.65
2018-06-02T16:41:18.339Z,5.15
2018-06-02T16:43:45.788Z,5.10
2018-06-02T16:46:14.016Z,4.45
2018-06-02T16:48:42.230Z,5.12
2018-06-02T16:51:09.682Z,5.15
2018-06-02T16:53:37.166Z,5.45
2018-06-02T16:56:04.665Z,4.80
2018-06-02T16:58:32.177Z,4.97
2018-06-02T17:00:59.732Z,5.10
2018-06-02T17:03:27.223Z,5.32
2018-06-02T17:05:55.436Z,5.15
2018-06-02T17:08:23.636Z,5.00
2018-06-02T17:10:51.146Z,4.57
2018-06-02T17:13:18.605Z,4.85
2018-06-02T17:15:46.066Z,4.65
2018-06-02T17:18:13.984Z,4.53
2018-06-02T17:20:41.438Z,5.68
2018-06-02T17:23:08.997Z,56.97
2018-06-02T17:25:37.587Z,53.53
2018-06-02T17:28:05.140Z,77.28
2018-06-02T17:30:32.620Z,92.88
2018-06-02T17:33:00.262Z,104.30
2018-06-02T17:35:27.715Z,111.43
2018-06-02T17:37:55.178Z,105.60
2018-06-02T17:40:23.044Z,104.20
2018-06-02T17:42:50.629Z,103.50
2018-06-02T17:45:18.092Z,106.72
2018-06-02T17:47:46.964Z,105.43
2018-06-02T17:50:14.414Z,100.07
2018-06-02T17:52:41.892Z,82.50
2018-06-02T17:55:10.006Z,73.37
2018-06-02T17:57:37.467Z,81.60
2018-06-02T18:00:04.919Z,80.00
2018-06-02T18:02:32.595Z,78.65
2018-06-02T18:05:00.071Z,82.25
2018-06-02T18:07:27.634Z,75.43
2018-06-02T18:09:57.329Z,83.25
2018-06-02T18:12:24.791Z,86.65
2018-06-02T18:14:52.239Z,87.15
2018-06-02T18:17:19.731Z,91.85
2018-06-02T18:19:47.246Z,92.50
2018-06-02T18:22:14.700Z,94.43
2018-06-02T18:24:42.302Z,93.85
2018-06-02T18:27:09.771Z,92.37
2018-06-02T18:29:37.231Z,89.43
2018-06-02T18:32:05.698Z,87.53
2018-06-02T18:34:33.259Z,86.30
2018-06-02T18:37:00.943Z,80.43
2018-06-02T18:39:28.437Z,80.57
2018-06-02T18:41:55.947Z,78.47
2018-06-02T18:44:23.502Z,74.00
2018-06-02T18:46:51.019Z,72.65
2018-06-02T18:49:18.478Z,74.40
2018-06-02T18:51:45.948Z,72.62
2018-06-02T18:54:13.970Z,71.65
2018-06-02T18:56:42.216Z,70.70
2018-06-02T18:59:09.781Z,69.55
2018-06-02T19:01:37.307Z,67.47
2018-06-02T19:04:04.770Z,69.20
2018-06-02T19:06:32.256Z,67.72
2018-06-02T19:09:01.019Z,66.82
2018-06-02T19:11:28.863Z,66.45
2018-06-02T19:13:56.326Z,65.12
2018-06-02T19:16:24.132Z,65.50
2018-06-02T19:18:51.590Z,64.32
2018-06-02T19:21:19.047Z,63.10
2018-06-02T19:23:46.916Z,65.72
2018-06-02T19:26:14.383Z,63.78
2018-06-02T19:28:41.844Z,63.03
2018-06-02T19:31:10.014Z,60.03
2018-06-02T19:33:37.490Z,62.53
2018-06-02T19:36:05.743Z,59.53
2018-06-02T19:38:34.321Z,57.67
2018-06-02T19:41:01.908Z,59.75
2018-06-02T19:43:29.342Z,57.10
2018-06-02T19:45:57.826Z,56.72
2018-06-02T19:48:25.391Z,57.88
2018-06-02T19:50:52.942Z,55.97
2018-06-02T19:53:21.119Z,57.35
2018-06-02T19:55:48.582Z,55.60
2018-06-02T19:58:16.135Z,55.63
2018-06-02T20:00:44.427Z,56.72
2018-06-02T20:03:12.652Z,56.42
2018-06-02T20:05:40.160Z,57.40
2018-06-02T20:08:10.068Z,54.00
2018-06-02T20:10:37.522Z,53.17
2018-06-02T20:13:05.955Z,51.72
2018-06-02T20:15:34.106Z,52.35
2018-06-02T20:18:02.330Z,48.13
2018-06-02T20:20:29.796Z,47.30
2018-06-02T20:22:57.560Z,41.97
2018-06-02T20:25:25.047Z,42.80
2018-06-02T20:27:52.511Z,41.17
2018-06-02T20:30:21.087Z,40.58
2018-06-02T20:32:48.629Z,38.72
2018-06-02T20:35:16.091Z,34.25
2018-06-02T20:37:43.651Z,33.55
2018-06-02T20:40:11.115Z,33.22
2018-06-02T20:42:38.679Z,31.48
2018-06-02T20:45:06.747Z,30.80
2018-06-02T20:47:34.212Z,29.52
2018-06-02T20:50:01.680Z,30.10
2018-06-02T20:52:30.247Z,28.75
2018-06-02T20:54:58.482Z,28.73
2018-06-02T20:57:25.952Z,26.92
2018-06-02T20:59:53.439Z,26.90
2018-06-02T21:02:20.907Z,26.77
2018-06-02T21:04:48.368Z,24.73
2018-06-02T21:07:16.011Z,25.02
2018-06-02T21:09:44.923Z,24.40
2018-06-02T21:12:12.375Z,24.27
2018-06-02T21:14:39.906Z,23.08
2018-06-02T21:17:07.365Z,22.15
2018-06-02T21:19:34.817Z,21.48
2018-06-02T21:22:02.315Z,21.87
2018-06-02T21:24:30.588Z,20.60
2018-06-02T21:26:58.040Z,20.37
2018-06-02T21:29:26.575Z,20.20
2018-06-02T21:31:54.038Z,19.20
2018-06-02T21:34:21.528Z,20.10
2018-06-02T21:36:49.020Z,19.02
2018-06-02T21:39:17.258Z,18.98
2018-06-02T21:41:44.819Z,18.50
2018-06-02T21:44:12.322Z,17.42
2018-06-02T21:46:40.559Z,17.52
2018-06-02T21:49:08.025Z,17.00
2018-06-02T21:51:37.210Z,17.20
2018-06-02T21:54:04.660Z,16.42
2018-06-02T21:56:32.120Z,16.33
2018-06-02T21:58:59.990Z,15.70
2018-06-02T22:01:27.464Z,15.90
2018-06-02T22:03:54.910Z,14.87
2018-06-02T22:06:22.680Z,15.65
2018-06-02T22:08:51.655Z,14.87
2018-06-02T22:11:19.188Z,14.38
2018-06-02T22:13:46.694Z,13.85
2018-06-02T22:16:14.244Z,13.73
2018-06-02T22:18:42.483Z,14.18
2018-06-02T22:21:13.155Z,13.55
2018-06-02T22:23:40.730Z,12.25
2018-06-02T22:26:08.206Z,12.68
2018-06-02T22:28:36.473Z,11.55
2018-06-02T22:31:04.011Z,12.13
2018-06-02T22:33:32.241Z,11.98
2018-06-02T22:35:59.847Z,11.80
2018-06-02T22:38:27.308Z,11.57
2018-06-02T22:40:54.883Z,10.90
2018-06-02T22:43:23.139Z,10.77
2018-06-02T22:45:50.710Z,10.75
2018-06-02T22:48:18.184Z,11.30
2018-06-02T22:50:46.455Z,10.30
2018-06-02T22:53:13.990Z,10.40
2018-06-02T22:55:41.460Z,10.30
2018-06-02T22:58:13.115Z,10.25
2018-06-02T23:00:40.579Z,9.95
2018-06-02T23:03:09.738Z,10.07
2018-06-02T23:05:37.229Z,9.40
2018-06-02T23:08:05.712Z,9.30
2018-06-02T23:10:33.371Z,8.82
2018-06-02T23:13:01.798Z,9.07
2018-06-02T23:15:29.273Z,8.43
2018-06-02T23:17:57.066Z,8.32
2018-06-02T23:20:24.525Z,8.40
2018-06-02T23:22:51.969Z,8.77
2018-06-02T23:25:20.362Z,8.05
2018-06-02T23:27:47.814Z,7.95
2018-06-02T23:30:15.273Z,7.53
2018-06-02T23:32:43.044Z,7.90
2018-06-02T23:35:10.493Z,7.75
2018-06-02T23:37:37.941Z,7.45
2018-06-02T23:40:05.723Z,7.57
2018-06-02T23:42:33.170Z,7.68
2018-06-02T23:45:00.635Z,7.22
2018-06-02T23:47:28.807Z,7.22
2018-06-02T23:49:56.254Z,6.93
2018-06-02T23:52:23.703Z,6.95
2018-06-02T23:54:51.364Z,6.50
2018-06-02T23:57:18.819Z,6.95
2018-06-02T23:59:46.304Z,6.18
